Time,TemperatureF,DewpointF,PressureIn,WindDirection,WindDirectionDegrees,WindSpeedMPH,WindSpeedGustMPH,Humidity,HourlyPrecipIn,Conditions,Clouds,dailyrainin,SoftwareType,DateUTC
2013-02-05 00:00:00,45.5,36.7,30.00,SW,235,0.0,0.0,71,0.00,,---,0.00,VWS V14.00,2013-02-05 07:00:00,
2013-02-05 00:06:00,45.4,36.6,30.00,SW,235,0.0,0.0,71,0.00,,---,0.00,VWS V14.00,2013-02-05 07:06:00,
2013-02-05 00:11:00,45.3,36.8,30.00,SW,235,0.0,0.0,72,0.00,,---,0.00,VWS V14.00,2013-02-05 07:11:00,
2013-02-05 00:16:00,45.1,36.6,30.00,SW,235,0.0,0.0,72,0.00,,---,0.00,VWS V14.00,2013-02-05 07:16:00,
2013-02-05 00:21:00,44.7,36.6,30.00,SW,234,0.0,0.0,73,0.00,,---,0.00,VWS V14.00,2013-02-05 07:21:00,
2013-02-05 00:26:00,44.6,36.5,30.00,SW,234,0.0,0.0,73,0.00,,---,0.00,VWS V14.00,2013-02-05 07:26:00,
2013-02-05 00:31:00,44.5,36.4,30.00,SW,234,0.0,0.0,73,0.00,,---,0.00,VWS V14.00,2013-02-05 07:31:00,
2013-02-05 00:36:00,44.9,36.8,30.00,SW,234,0.0,0.0,73,0.00,,---,0.00,VWS V14.00,2013-02-05 07:36:00,
2013-02-05 00:41:00,45.5,37.0,30.00,SW,233,0.0,0.0,72,0.00,,---,0.00,VWS V14.00,2013-02-05 07:41:00,
2013-02-05 00:46:00,45.6,37.1,30.00,SW,233,0.0,0.0,72,0.00,,---,0.00,VWS V14.00,2013-02-05 07:46:00,
2013-02-05 00:51:00,45.5,36.7,30.00,SW,233,0.0,0.0,71,0.00,,---,0.00,VWS V14.00,2013-02-05 07:51:00,
2013-02-05 00:56:00,45.3,37.2,30.00,SW,233,0.0,0.0,73,0.00,,---,0.00,VWS V14.00,2013-02-05 07:56:00,
2013-02-05 01:01:00,45.2,37.1,30.00,SW,216,0.0,0.0,73,0.00,,---,0.00,VWS V14.00,2013-02-05 08:01:00,
2013-02-05 01:06:00,45.6,37.1,30.00,SW,216,0.0,0.0,72,0.00,,---,0.00,VWS V14.00,2013-02-05 08:06:00,
2013-02-05 01:11:00,45.9,37.4,30.00,SW,216,0.0,0.0,72,0.00,,---,0.00,VWS V14.00,2013-02-05 08:11:00,
2013-02-05 01:16:00,45.9,37.4,30.00,SW,216,0.0,0.0,72,0.00,,---,0.00,VWS V14.00,2013-02-05 08:16:00,
2013-02-05 01:21:00,45.7,37.2,30.00,SW,216,0.0,0.0,72,0.00,,---,0.00,VWS V14.00,2013-02-05 08:21:00,
2013-02-05 01:26:00,45.6,37.5,30.00,SW,216,0.0,0.0,73,0.00,,---,0.00,VWS V14.00,2013-02-05 08:26:00,
2013-02-05 01:31:00,45.7,37.5,29.99,SW,216,0.0,0.0,73,0.00,,---,0.00,VWS V14.00,2013-02-05 08:31:00,
2013-02-05 01:36:00,45.8,37.7,29.99,SW,216,0.0,0.0,73,0.00,,---,0.00,VWS V14.00,2013-02-05 08:36:00,
2013-02-05 01:41:00,45.8,37.3,29.99,SW,216,0.0,0.0,72,0.00,,---,0.00,VWS V14.00,2013-02-05 08:41:00,
2013-02-05 01:46:00,45.8,37.3,29.99,SW,216,0.0,0.0,72,0.00,,---,0.00,VWS V14.00,2013-02-05 08:46:00,
2013-02-05 01:51:00,45.9,37.0,29.99,SW,216,0.0,0.0,71,0.00,,---,0.00,VWS V14.00,2013-02-05 08:51:00,
2013-02-05 01:56:00,45.6,36.4,29.99,SW,216,0.0,0.0,70,0.00,,---,0.00,VWS V14.00,2013-02-05 08:56:00,
2013-02-05 02:01:00,45.2,36.0,30.00,SW,216,0.0,0.0,70,0.00,,---,0.00,VWS V14.00,2013-02-05 09:01:00,
2013-02-05 02:06:00,44.2,35.0,29.99,SW,216,0.0,0.0,70,0.00,,---,0.00,VWS V14.00,2013-02-05 09:06:00,
2013-02-05 02:11:00,43.1,35.0,29.99,SW,216,0.0,0.0,73,0.00,,---,0.00,VWS V14.00,2013-02-05 09:11:00,
2013-02-05 02:16:00,42.3,34.3,29.99,SW,216,0.0,0.0,73,0.00,,---,0.00,VWS V14.00,2013-02-05 09:16:00,
2013-02-05 02:21:00,41.5,34.2,29.99,SW,216,0.0,0.0,75,0.00,,---,0.00,VWS V14.00,2013-02-05 09:21:00,
2013-02-05 02:26:00,40.7,33.4,29.99,SW,216,0.0,0.0,75,0.00,,---,0.00,VWS V14.00,2013-02-05 09:26:00,
2013-02-05 02:31:00,39.7,32.4,29.98,SW,216,0.0,0.0,75,0.00,,---,0.00,VWS V14.00,2013-02-05 09:31:00,
2013-02-05 02:36:00,38.7,32.1,29.98,SW,216,0.0,0.0,77,0.00,,---,0.00,VWS V14.00,2013-02-05 09:36:00,
2013-02-05 02:41:00,38.3,33.0,29.98,SW,216,0.0,0.0,81,0.00,,---,0.00,VWS V14.00,2013-02-05 09:41:00,
2013-02-05 02:48:00,38.6,33.6,29.98,SW,216,0.0,0.0,82,0.00,,---,0.00,VWS V14.00,2013-02-05 09:48:00,
2013-02-05 02:53:00,38.8,33.5,29.98,SW,216,0.0,0.0,81,0.00,,---,0.00,VWS V14.00,2013-02-05 09:53:00,
2013-02-05 02:58:00,39.3,34.6,29.98,SW,216,0.0,0.0,83,0.00,,---,0.00,VWS V14.00,2013-02-05 09:58:00,
2013-02-05 03:03:00,39.4,33.4,29.98,SW,216,0.0,0.0,79,0.00,,---,0.00,VWS V14.00,2013-02-05 10:03:00,
2013-02-05 03:08:00,38.9,33.3,29.97,SW,216,0.0,0.0,80,0.00,,---,0.00,VWS V14.00,2013-02-05 10:08:00,
2013-02-05 03:14:00,37.9,31.4,29.98,SW,216,0.0,0.0,77,0.00,,---,0.00,VWS V14.00,2013-02-05 10:14:00,
2013-02-05 03:19:00,37.1,31.5,29.98,SW,216,0.0,0.0,80,0.00,,---,0.00,VWS V14.00,2013-02-05 10:19:00,
2013-02-05 03:23:00,37.2,32.5,29.98,SW,216,0.0,0.0,83,0.00,,---,0.00,VWS V14.00,2013-02-05 10:23:00,
2013-02-05 03:29:00,38.7,35.5,29.98,SW,216,0.0,0.0,88,0.00,,---,0.00,VWS V14.00,2013-02-05 10:29:00,
2013-02-05 03:34:00,41.7,38.1,29.98,SW,216,0.0,0.0,87,0.00,,---,0.00,VWS V14.00,2013-02-05 10:34:00,
2013-02-05 03:39:00,43.3,37.2,29.98,SW,216,0.0,0.0,79,0.00,,---,0.00,VWS V14.00,2013-02-05 10:39:00,
2013-02-05 03:45:00,43.7,36.6,29.98,SW,216,0.0,0.0,76,0.00,,---,0.00,VWS V14.00,2013-02-05 10:45:00,
2013-02-05 03:50:00,43.4,35.3,29.98,SW,216,0.0,0.0,73,0.00,,---,0.00,VWS V14.00,2013-02-05 10:50:00,
2013-02-05 03:55:00,41.8,33.1,29.98,SW,216,0.0,0.0,71,0.00,,---,0.00,VWS V14.00,2013-02-05 10:55:00,
2013-02-05 04:00:00,40.2,32.9,29.98,SW,216,0.0,0.0,75,0.00,,---,0.00,VWS V14.00,2013-02-05 11:00:00,
2013-02-05 04:05:00,39.3,33.7,29.98,SW,216,0.0,0.0,80,0.00,,---,0.00,VWS V14.00,2013-02-05 11:05:00,
2013-02-05 04:09:00,39.1,34.1,29.98,SW,216,0.0,0.0,82,0.00,,---,0.00,VWS V14.00,2013-02-05 11:09:00,
2013-02-05 04:15:00,38.8,33.5,29.98,SW,216,0.0,0.0,81,0.00,,---,0.00,VWS V14.00,2013-02-05 11:15:00,
2013-02-05 04:20:00,38.3,33.3,29.98,SW,216,0.0,0.0,82,0.00,,---,0.00,VWS V14.00,2013-02-05 11:20:00,
2013-02-05 04:25:00,38.1,33.1,29.98,SW,216,0.0,0.0,82,0.00,,---,0.00,VWS V14.00,2013-02-05 11:25:00,
2013-02-05 04:30:00,38.2,33.5,29.98,SW,216,0.0,0.0,83,0.00,,---,0.00,VWS V14.00,2013-02-05 11:30:00,
2013-02-05 04:35:00,38.0,33.0,29.98,SW,216,0.0,0.0,82,0.00,,---,0.00,VWS V14.00,2013-02-05 11:35:00,
2013-02-05 04:40:00,38.0,33.3,29.98,SW,216,0.0,0.0,83,0.00,,---,0.00,VWS V14.00,2013-02-05 11:40:00,
2013-02-05 04:45:00,38.1,33.4,29.98,SW,216,0.0,0.0,83,0.00,,---,0.00,VWS V14.00,2013-02-05 11:45:00,
2013-02-05 04:50:00,38.3,33.9,29.98,SW,216,0.0,0.0,84,0.00,,---,0.00,VWS V14.00,2013-02-05 11:50:00,
2013-02-05 04:55:00,37.9,32.3,29.98,SW,216,0.0,0.0,80,0.00,,---,0.00,VWS V14.00,2013-02-05 11:55:00,
2013-02-05 05:00:00,37.3,32.0,29.98,SW,216,0.0,0.0,81,0.00,,---,0.00,VWS V14.00,2013-02-05 12:00:00,
2013-02-05 05:05:00,36.5,30.9,29.98,SW,216,0.0,0.0,80,0.00,,---,0.00,VWS V14.00,2013-02-05 12:05:00,
2013-02-05 05:10:00,35.6,31.0,29.98,SW,216,0.0,0.0,83,0.00,,---,0.00,VWS V14.00,2013-02-05 12:10:00,
2013-02-05 05:15:00,35.2,30.9,29.98,SW,216,0.0,0.0,84,0.00,,---,0.00,VWS V14.00,2013-02-05 12:15:00,
2013-02-05 05:20:00,35.0,31.0,29.98,SW,216,0.0,0.0,85,0.00,,---,0.00,VWS V14.00,2013-02-05 12:20:00,
2013-02-05 05:25:00,34.5,30.2,29.98,SW,216,0.0,0.0,84,0.00,,---,0.00,VWS V14.00,2013-02-05 12:25:00,
2013-02-05 05:30:00,34.3,30.6,29.98,SW,216,0.0,0.0,86,0.00,,---,0.00,VWS V14.00,2013-02-05 12:30:00,
2013-02-05 05:35:00,35.5,32.3,29.98,SW,216,0.0,0.0,88,0.00,,---,0.00,VWS V14.00,2013-02-05 12:35:00,
2013-02-05 05:40:00,36.2,32.7,29.98,South,187,0.0,0.0,87,0.00,,---,0.00,VWS V14.00,2013-02-05 12:40:00,
2013-02-05 05:45:00,36.8,32.7,29.98,South,186,0.0,0.0,85,0.00,,---,0.00,VWS V14.00,2013-02-05 12:45:00,
2013-02-05 05:50:00,36.0,31.4,29.98,South,182,0.0,0.0,83,0.00,,---,0.00,VWS V14.00,2013-02-05 12:50:00,
2013-02-05 05:55:00,36.4,32.6,29.98,SSE,159,0.0,0.0,86,0.00,,---,0.00,VWS V14.00,2013-02-05 12:55:00,
2013-02-05 06:00:00,36.4,32.0,29.98,SSE,159,0.0,0.0,84,0.00,,---,0.00,VWS V14.00,2013-02-05 13:00:00,
2013-02-05 06:05:00,36.0,31.4,29.98,SSE,159,0.0,0.0,83,0.00,,---,0.00,VWS V14.00,2013-02-05 13:05:00,
2013-02-05 06:10:00,35.8,31.7,29.98,SSE,159,0.0,0.0,85,0.00,,---,0.00,VWS V14.00,2013-02-05 13:10:00,
2013-02-05 06:15:00,35.3,30.7,29.98,SSE,159,0.0,0.0,83,0.00,,---,0.00,VWS V14.00,2013-02-05 13:15:00,
2013-02-05 06:20:00,34.9,30.3,29.99,SSE,159,0.0,0.0,83,0.00,,---,0.00,VWS V14.00,2013-02-05 13:20:00,
2013-02-05 06:25:00,34.1,29.2,29.99,SSE,159,0.0,0.0,82,0.00,,---,0.00,VWS V14.00,2013-02-05 13:25:00,
2013-02-05 06:30:00,33.7,30.0,29.99,SSE,159,0.0,0.0,86,0.00,,---,0.00,VWS V14.00,2013-02-05 13:30:00,
2013-02-05 06:35:00,33.5,29.8,29.99,SSE,159,0.0,0.0,86,0.00,,---,0.00,VWS V14.00,2013-02-05 13:35:00,
2013-02-05 06:40:00,33.2,29.2,29.99,SSE,159,0.0,0.0,85,0.00,,---,0.00,VWS V14.00,2013-02-05 13:40:00,
2013-02-05 06:45:00,32.8,28.8,30.00,SSE,159,0.0,0.0,85,0.00,,---,0.00,VWS V14.00,2013-02-05 13:45:00,
2013-02-05 06:50:00,32.3,28.3,30.00,SSE,159,0.0,0.0,85,0.00,,---,0.00,VWS V14.00,2013-02-05 13:50:00,
2013-02-05 06:55:00,32.1,28.4,30.00,SSE,159,0.0,0.0,86,0.00,,---,0.00,VWS V14.00,2013-02-05 13:55:00,
2013-02-05 07:00:00,32.2,29.0,30.00,SSE,159,0.0,0.0,88,0.00,,---,0.00,VWS V14.00,2013-02-05 14:00:00,
2013-02-05 07:05:00,32.8,29.9,30.00,SSE,159,0.0,0.0,89,0.00,,---,0.00,VWS V14.00,2013-02-05 14:05:00,
2013-02-05 07:10:00,33.2,30.3,30.00,SSE,159,0.0,0.0,89,0.00,,---,0.00,VWS V14.00,2013-02-05 14:10:00,
2013-02-05 07:15:00,33.1,29.9,30.00,SSE,159,0.0,0.0,88,0.00,,---,0.00,VWS V14.00,2013-02-05 14:15:00,
2013-02-05 07:20:00,33.7,30.5,30.00,SSE,159,0.0,0.0,88,0.00,,---,0.00,VWS V14.00,2013-02-05 14:20:00,
2013-02-05 07:25:00,34.1,30.9,30.01,SSE,159,0.0,0.0,88,0.00,,---,0.00,VWS V14.00,2013-02-05 14:25:00,
2013-02-05 07:30:00,34.3,31.1,30.01,SSE,159,0.0,0.0,88,0.00,,---,0.00,VWS V14.00,2013-02-05 14:30:00,
2013-02-05 07:35:00,33.8,29.5,30.01,SSE,159,0.0,0.0,84,0.00,,---,0.00,VWS V14.00,2013-02-05 14:35:00,
2013-02-05 07:40:00,33.6,30.1,30.01,SSE,159,0.0,0.0,87,0.00,,---,0.00,VWS V14.00,2013-02-05 14:40:00,
2013-02-05 07:45:00,34.1,30.9,30.01,SSE,159,0.0,0.0,88,0.00,,---,0.00,VWS V14.00,2013-02-05 14:45:00,
2013-02-05 07:50:00,34.6,31.7,30.01,SSE,159,0.0,0.0,89,0.00,,---,0.00,VWS V14.00,2013-02-05 14:50:00,
2013-02-05 07:55:00,35.8,33.2,30.02,SSE,159,0.0,0.0,90,0.00,,---,0.00,VWS V14.00,2013-02-05 14:55:00,
2013-02-05 08:00:00,37.2,34.5,30.02,SSE,159,0.0,0.0,90,0.00,,---,0.00,VWS V14.00,2013-02-05 15:00:00,
2013-02-05 08:05:00,39.1,36.4,30.02,SSE,159,0.0,0.0,90,0.00,,---,0.00,VWS V14.00,2013-02-05 15:05:00,
2013-02-05 08:10:00,41.0,37.7,30.02,SSE,159,0.0,0.0,88,0.00,,---,0.00,VWS V14.00,2013-02-05 15:10:00,
2013-02-05 08:15:00,42.8,38.9,30.02,SSE,159,0.0,0.0,86,0.00,,---,0.00,VWS V14.00,2013-02-05 15:15:00,
2013-02-05 08:20:00,44.2,39.7,30.02,SSE,159,0.0,0.0,84,0.00,,---,0.00,VWS V14.00,2013-02-05 15:20:00,
2013-02-05 08:25:00,45.6,40.7,30.02,SSE,159,0.0,0.0,83,0.00,,---,0.00,VWS V14.00,2013-02-05 15:25:00,
2013-02-05 08:30:00,46.9,40.7,30.02,SSE,159,0.0,0.0,79,0.00,,---,0.00,VWS V14.00,2013-02-05 15:30:00,
2013-02-05 08:35:00,48.0,40.1,30.02,SSE,159,0.0,0.0,74,0.00,,---,0.00,VWS V14.00,2013-02-05 15:35:00,
2013-02-05 08:40:00,48.8,39.8,30.02,SSE,157,0.0,0.0,71,0.00,,---,0.00,VWS V14.00,2013-02-05 15:40:00,
2013-02-05 08:45:00,49.4,40.0,30.03,SSE,157,0.0,0.0,70,0.00,,---,0.00,VWS V14.00,2013-02-05 15:45:00,
2013-02-05 08:50:00,50.2,40.4,30.03,SSE,157,0.0,0.0,69,0.00,,---,0.00,VWS V14.00,2013-02-05 15:50:00,
2013-02-05 08:55:00,50.9,40.3,30.03,SSE,157,0.0,0.0,67,0.00,,---,0.00,VWS V14.00,2013-02-05 15:55:00,
2013-02-05 09:00:00,51.5,40.1,30.03,SSE,154,0.0,3.0,65,0.00,,---,0.00,VWS V14.00,2013-02-05 16:00:00,
2013-02-05 09:05:00,52.1,39.9,30.03,SSE,154,0.0,0.0,63,0.00,,---,0.00,VWS V14.00,2013-02-05 16:05:00,
2013-02-05 09:10:00,52.7,39.6,30.03,SSE,154,0.0,0.0,61,0.00,,---,0.00,VWS V14.00,2013-02-05 16:10:00,
2013-02-05 09:15:00,52.9,39.4,30.03,SSE,154,0.0,0.0,60,0.00,,---,0.00,VWS V14.00,2013-02-05 16:15:00,
2013-02-05 09:20:00,53.1,39.6,30.03,SSE,154,0.0,0.0,60,0.00,,---,0.00,VWS V14.00,2013-02-05 16:20:00,
2013-02-05 09:25:00,53.8,40.3,30.02,SSE,154,0.0,0.0,60,0.00,,---,0.00,VWS V14.00,2013-02-05 16:25:00,
2013-02-05 09:30:00,54.3,39.8,30.02,SSE,154,0.0,0.0,58,0.00,,---,0.00,VWS V14.00,2013-02-05 16:30:00,
2013-02-05 09:35:00,54.8,39.9,30.02,SSE,155,0.0,0.0,57,0.00,,---,0.00,VWS V14.00,2013-02-05 16:35:00,
2013-02-05 09:40:00,54.7,40.2,30.02,SSE,155,0.0,0.0,58,0.00,,---,0.00,VWS V14.00,2013-02-05 16:40:00,
2013-02-05 09:45:00,54.9,39.5,30.02,SSE,155,0.0,0.0,56,0.00,,---,0.00,VWS V14.00,2013-02-05 16:45:00,
2013-02-05 09:50:00,55.1,39.7,30.02,SSE,156,0.0,0.0,56,0.00,,---,0.00,VWS V14.00,2013-02-05 16:50:00,
2013-02-05 09:55:00,55.5,40.1,30.03,SSE,164,0.0,0.0,56,0.00,,---,0.00,VWS V14.00,2013-02-05 16:55:00,
2013-02-05 10:00:00,56.0,40.1,30.03,SSW,198,0.0,0.0,55,0.00,,---,0.00,VWS V14.00,2013-02-05 17:00:00,
2013-02-05 10:05:00,56.3,40.4,30.03,SW,224,2.0,3.0,55,0.00,,---,0.00,VWS V14.00,2013-02-05 17:05:00,
2013-02-05 10:10:00,56.6,40.2,30.03,WSW,244,3.0,3.0,54,0.00,,---,0.00,VWS V14.00,2013-02-05 17:10:00,
2013-02-05 10:15:00,56.7,39.8,30.02,West,263,0.0,4.0,53,0.00,,---,0.00,VWS V14.00,2013-02-05 17:15:00,
2013-02-05 10:20:00,57.0,39.6,30.03,West,263,0.0,4.0,52,0.00,,---,0.00,VWS V14.00,2013-02-05 17:20:00,
2013-02-05 10:25:00,57.3,39.3,30.03,WSW,238,0.0,5.0,51,0.00,,---,0.00,VWS V14.00,2013-02-05 17:25:00,
2013-02-05 10:30:00,57.7,39.2,30.03,SE,146,0.0,5.0,50,0.00,,---,0.00,VWS V14.00,2013-02-05 17:30:00,
2013-02-05 10:36:00,58.3,39.8,30.03,SSE,159,0.0,0.0,50,0.00,,---,0.00,VWS V14.00,2013-02-05 17:36:00,
2013-02-05 10:41:00,58.5,39.4,30.03,SSW,198,0.0,4.0,49,0.00,,---,0.00,VWS V14.00,2013-02-05 17:41:00,
2013-02-05 10:46:00,58.9,39.8,30.02,SW,222,3.0,6.0,49,0.00,,---,0.00,VWS V14.00,2013-02-05 17:46:00,
2013-02-05 10:51:00,59.1,40.0,30.02,South,187,0.0,6.0,49,0.00,,---,0.00,VWS V14.00,2013-02-05 17:51:00,
2013-02-05 10:56:00,59.5,39.3,30.02,SSE,153,0.0,6.0,47,0.00,,---,0.00,VWS V14.00,2013-02-05 17:56:00,
2013-02-05 11:01:00,59.8,39.5,30.01,SSW,199,0.0,6.0,47,0.00,,---,0.00,VWS V14.00,2013-02-05 18:01:00,
2013-02-05 11:06:00,60.2,38.8,30.01,SE,144,0.0,0.0,45,0.00,,---,0.00,VWS V14.00,2013-02-05 18:06:00,
2013-02-05 11:11:00,60.5,39.1,30.01,SSE,150,0.0,0.0,45,0.00,,---,0.00,VWS V14.00,2013-02-05 18:11:00,
2013-02-05 11:16:00,60.8,38.8,30.01,SE,143,0.0,5.0,44,0.00,,---,0.00,VWS V14.00,2013-02-05 18:16:00,
2013-02-05 11:21:00,61.0,39.0,30.01,SE,126,0.0,7.0,44,0.00,,---,0.00,VWS V14.00,2013-02-05 18:21:00,
2013-02-05 11:26:00,61.2,39.1,30.00,SSE,153,4.0,11.0,44,0.00,,---,0.00,VWS V14.00,2013-02-05 18:26:00,
2013-02-05 11:31:00,61.4,39.3,30.00,ESE,123,0.0,11.0,44,0.00,,---,0.00,VWS V14.00,2013-02-05 18:31:00,
2013-02-05 11:36:00,61.4,38.7,30.00,NE,46,4.0,5.0,43,0.00,,---,0.00,VWS V14.00,2013-02-05 18:36:00,
2013-02-05 11:41:00,60.7,38.7,30.00,NNE,21,0.0,5.0,44,0.00,,---,0.00,VWS V14.00,2013-02-05 18:41:00,
2013-02-05 11:46:00,60.8,39.3,29.99,SE,127,0.0,5.0,45,0.00,,---,0.00,VWS V14.00,2013-02-05 18:46:00,
2013-02-05 11:51:00,61.5,38.8,29.99,SE,138,0.0,7.0,43,0.00,,---,0.00,VWS V14.00,2013-02-05 18:51:00,
2013-02-05 11:56:00,62.1,38.8,29.99,SSE,148,2.0,7.0,42,0.00,,---,0.00,VWS V14.00,2013-02-05 18:56:00,
2013-02-05 12:01:00,62.2,38.8,29.99,SE,146,4.0,9.0,42,0.00,,---,0.00,VWS V14.00,2013-02-05 19:01:00,
2013-02-05 12:06:00,62.0,38.7,29.99,SW,236,1.0,7.0,42,0.00,,---,0.00,VWS V14.00,2013-02-05 19:06:00,
2013-02-05 12:11:00,61.6,38.9,29.99,WSW,239,0.0,7.0,43,0.00,,---,0.00,VWS V14.00,2013-02-05 19:11:00,
2013-02-05 12:16:00,61.7,38.4,29.98,SSW,212,5.0,8.0,42,0.00,,---,0.00,VWS V14.00,2013-02-05 19:16:00,
2013-02-05 12:21:00,61.8,38.5,29.98,SSW,212,5.0,8.0,42,0.00,,---,0.00,VWS V14.00,2013-02-05 19:21:00,
2013-02-05 12:26:00,61.7,38.4,29.97,WSW,252,0.0,8.0,42,0.00,,---,0.00,VWS V14.00,2013-02-05 19:26:00,
2013-02-05 12:31:00,62.2,38.2,29.97,NE,50,0.0,8.0,41,0.00,,---,0.00,VWS V14.00,2013-02-05 19:31:00,
2013-02-05 12:36:00,62.5,36.6,29.97,South,185,8.0,12.0,38,0.00,,---,0.00,VWS V14.00,2013-02-05 19:36:00,
2013-02-05 12:41:00,62.7,36.8,29.97,South,180,3.0,12.0,38,0.00,,---,0.00,VWS V14.00,2013-02-05 19:41:00,
2013-02-05 12:46:00,62.6,37.3,29.97,SSW,203,1.0,12.0,39,0.00,,---,0.00,VWS V14.00,2013-02-05 19:46:00,
2013-02-05 12:51:00,62.8,36.8,29.97,South,171,4.0,12.0,38,0.00,,---,0.00,VWS V14.00,2013-02-05 19:51:00,
2013-02-05 12:56:00,63.2,36.5,29.96,ENE,61,4.0,12.0,37,0.00,,---,0.00,VWS V14.00,2013-02-05 19:56:00,
2013-02-05 13:01:00,63.3,36.6,29.96,ESE,106,0.0,12.0,37,0.00,,---,0.00,VWS V14.00,2013-02-05 20:01:00,
2013-02-05 13:06:00,63.7,37.0,29.95,SE,134,0.0,5.0,37,0.00,,---,0.00,VWS V14.00,2013-02-05 20:06:00,
2013-02-05 13:11:00,64.0,36.5,29.95,SE,134,0.0,5.0,36,0.00,,---,0.00,VWS V14.00,2013-02-05 20:11:00,
2013-02-05 13:16:00,64.3,36.8,29.95,West,277,0.0,5.0,36,0.00,,---,0.00,VWS V14.00,2013-02-05 20:16:00,
2013-02-05 13:21:00,64.1,35.9,29.94,SSE,157,0.0,7.0,35,0.00,,---,0.00,VWS V14.00,2013-02-05 20:21:00,
2013-02-05 13:26:00,63.8,36.4,29.93,SSE,161,4.0,7.0,36,0.00,,---,0.00,VWS V14.00,2013-02-05 20:26:00,
2013-02-05 13:31:00,63.6,35.5,29.93,South,177,6.0,6.0,35,0.00,,---,0.00,VWS V14.00,2013-02-05 20:31:00,
2013-02-05 13:36:00,63.7,35.6,29.93,SSE,167,5.0,9.0,35,0.00,,---,0.00,VWS V14.00,2013-02-05 20:36:00,
2013-02-05 13:41:00,63.5,35.4,29.94,SSW,200,2.0,13.0,35,0.00,,---,0.00,VWS V14.00,2013-02-05 20:41:00,
2013-02-05 13:46:00,63.2,35.8,29.93,WSW,240,0.0,13.0,36,0.00,,---,0.00,VWS V14.00,2013-02-05 20:46:00,
2013-02-05 13:51:00,63.4,35.3,29.93,SE,145,4.0,13.0,35,0.00,,---,0.00,VWS V14.00,2013-02-05 20:51:00,
2013-02-05 13:56:00,63.9,35.7,29.93,SE,139,0.0,13.0,35,0.00,,---,0.00,VWS V14.00,2013-02-05 20:56:00,
2013-02-05 14:01:00,64.2,35.3,29.93,South,176,0.0,0.0,34,0.00,,---,0.00,VWS V14.00,2013-02-05 21:01:00,
2013-02-05 14:06:00,64.2,34.5,29.93,SSE,165,0.0,8.0,33,0.00,,---,0.00,VWS V14.00,2013-02-05 21:06:00,
2013-02-05 14:11:00,63.8,34.2,29.92,WSW,253,3.0,12.0,33,0.00,,---,0.00,VWS V14.00,2013-02-05 21:11:00,
2013-02-05 14:16:00,63.5,34.7,29.92,WSW,251,0.0,12.0,34,0.00,,---,0.00,VWS V14.00,2013-02-05 21:16:00,
2013-02-05 14:22:00,63.4,34.6,29.92,West,263,0.0,12.0,34,0.00,,---,0.00,VWS V14.00,2013-02-05 21:22:00,
2013-02-05 14:27:00,63.4,34.6,29.92,SW,229,0.0,12.0,34,0.00,,---,0.00,VWS V14.00,2013-02-05 21:27:00,
2013-02-05 14:32:00,63.6,34.7,29.91,SW,215,0.0,0.0,34,0.00,,---,0.00,VWS V14.00,2013-02-05 21:32:00,
2013-02-05 14:37:00,64.2,34.5,29.92,SW,214,0.0,0.0,33,0.00,,---,0.00,VWS V14.00,2013-02-05 21:37:00,
2013-02-05 14:42:00,64.4,34.7,29.91,SSW,212,3.0,13.0,33,0.00,,---,0.00,VWS V14.00,2013-02-05 21:42:00,
2013-02-05 14:47:00,64.1,34.4,29.91,SW,219,2.0,13.0,33,0.00,,---,0.00,VWS V14.00,2013-02-05 21:47:00,
2013-02-05 14:52:00,64.1,33.7,29.91,WSW,242,1.0,13.0,32,0.00,,---,0.00,VWS V14.00,2013-02-05 21:52:00,
2013-02-05 14:57:00,64.0,33.6,29.91,East,94,0.0,13.0,32,0.00,,---,0.00,VWS V14.00,2013-02-05 21:57:00,
2013-02-05 15:02:00,63.8,33.4,29.91,WSW,240,3.0,4.0,32,0.00,,---,0.00,VWS V14.00,2013-02-05 22:02:00,
2013-02-05 15:07:00,64.1,34.4,29.90,SW,224,1.0,5.0,33,0.00,,---,0.00,VWS V14.00,2013-02-05 22:07:00,
2013-02-05 15:12:00,64.1,34.4,29.90,SSE,167,0.0,6.0,33,0.00,,---,0.00,VWS V14.00,2013-02-05 22:12:00,
2013-02-05 15:17:00,64.1,34.4,29.90,WSW,250,2.0,6.0,33,0.00,,---,0.00,VWS V14.00,2013-02-05 22:17:00,
2013-02-05 15:22:00,64.2,34.5,29.91,SSW,213,3.0,14.0,33,0.00,,---,0.00,VWS V14.00,2013-02-05 22:22:00,
2013-02-05 15:27:00,64.2,34.5,29.90,WSW,246,1.0,14.0,33,0.00,,---,0.00,VWS V14.00,2013-02-05 22:27:00,
2013-02-05 15:32:00,64.4,33.9,29.91,SW,215,2.0,3.0,32,0.00,,---,0.00,VWS V14.00,2013-02-05 22:32:00,
2013-02-05 15:37:00,64.3,34.6,29.91,SW,227,0.0,5.0,33,0.00,,---,0.00,VWS V14.00,2013-02-05 22:37:00,
2013-02-05 15:42:00,64.5,34.0,29.90,SSE,159,3.0,6.0,32,0.00,,---,0.00,VWS V14.00,2013-02-05 22:42:00,
2013-02-05 15:47:00,64.5,34.0,29.90,SE,140,0.0,6.0,32,0.00,,---,0.00,VWS V14.00,2013-02-05 22:47:00,
2013-02-05 15:52:00,64.5,34.0,29.91,South,189,0.0,8.0,32,0.00,,---,0.00,VWS V14.00,2013-02-05 22:52:00,
2013-02-05 15:57:00,64.2,33.8,29.90,SW,218,8.0,10.0,32,0.00,,---,0.00,VWS V14.00,2013-02-05 22:57:00,
2013-02-05 16:02:00,64.0,32.8,29.91,SW,215,5.0,5.0,31,0.00,,---,0.00,VWS V14.00,2013-02-05 23:02:00,
2013-02-05 16:07:00,64.1,32.9,29.91,WSW,237,2.0,9.0,31,0.00,,---,0.00,VWS V14.00,2013-02-05 23:07:00,
2013-02-05 16:12:00,64.2,32.2,29.91,SW,217,5.0,9.0,30,0.00,,---,0.00,VWS V14.00,2013-02-05 23:12:00,
2013-02-05 16:17:00,64.1,32.1,29.91,WSW,248,6.0,9.0,30,0.00,,---,0.00,VWS V14.00,2013-02-05 23:17:00,
2013-02-05 16:22:00,64.1,32.1,29.90,WNW,298,1.0,9.0,30,0.00,,---,0.00,VWS V14.00,2013-02-05 23:22:00,
2013-02-05 16:27:00,63.9,33.5,29.90,West,261,0.0,9.0,32,0.00,,---,0.00,VWS V14.00,2013-02-05 23:27:00,
2013-02-05 16:32:00,63.9,32.7,29.90,WSW,252,2.0,5.0,31,0.00,,---,0.00,VWS V14.00,2013-02-05 23:32:00,
2013-02-05 16:37:00,63.8,33.4,29.90,West,275,2.0,8.0,32,0.00,,---,0.00,VWS V14.00,2013-02-05 23:37:00,
2013-02-05 16:42:00,63.7,33.3,29.90,WSW,240,0.0,8.0,32,0.00,,---,0.00,VWS V14.00,2013-02-05 23:42:00,
2013-02-05 16:47:00,63.9,33.5,29.90,SW,215,3.0,8.0,32,0.00,,---,0.00,VWS V14.00,2013-02-05 23:47:00,
2013-02-05 16:52:00,64.0,33.6,29.90,SW,215,0.0,8.0,32,0.00,,---,0.00,VWS V14.00,2013-02-05 23:52:00,
2013-02-05 16:57:00,64.2,33.0,29.90,SW,215,0.0,8.0,31,0.00,,---,0.00,VWS V14.00,2013-02-05 23:57:00,
2013-02-05 17:02:00,64.3,33.8,29.90,SW,215,0.0,0.0,32,0.00,,---,0.00,VWS V14.00,2013-02-06 00:02:00,
2013-02-05 17:07:00,64.1,33.7,29.90,SW,216,0.0,0.0,32,0.00,,---,0.00,VWS V14.00,2013-02-06 00:07:00,
2013-02-05 17:12:00,63.8,33.4,29.90,WSW,253,0.0,7.0,32,0.00,,---,0.00,VWS V14.00,2013-02-06 00:12:00,
2013-02-05 17:17:00,63.8,34.2,29.90,WSW,253,0.0,7.0,33,0.00,,---,0.00,VWS V14.00,2013-02-06 00:17:00,
2013-02-05 17:22:00,63.8,34.2,29.90,WSW,253,0.0,7.0,33,0.00,,---,0.00,VWS V14.00,2013-02-06 00:22:00,
2013-02-05 17:27:00,63.4,34.6,29.90,WSW,249,0.0,7.0,34,0.00,,---,0.00,VWS V14.00,2013-02-06 00:27:00,
2013-02-05 17:32:00,62.9,34.1,29.90,WSW,249,0.0,0.0,34,0.00,,---,0.00,VWS V14.00,2013-02-06 00:32:00,
2013-02-05 17:37:00,61.9,34.0,29.90,WSW,250,0.0,0.0,35,0.00,,---,0.00,VWS V14.00,2013-02-06 00:37:00,
2013-02-05 17:42:00,61.0,33.9,29.90,WSW,250,0.0,0.0,36,0.00,,---,0.00,VWS V14.00,2013-02-06 00:42:00,
2013-02-05 17:47:00,60.2,33.2,29.90,WSW,250,0.0,0.0,36,0.00,,---,0.00,VWS V14.00,2013-02-06 00:47:00,
2013-02-05 17:52:00,59.5,33.2,29.90,WSW,250,0.0,0.0,37,0.00,,---,0.00,VWS V14.00,2013-02-06 00:52:00,
2013-02-05 17:57:00,58.4,34.8,29.90,West,275,0.0,6.0,41,0.00,,---,0.00,VWS V14.00,2013-02-06 00:57:00,
2013-02-05 18:02:00,57.5,35.2,29.90,West,275,0.0,0.0,43,0.00,,---,0.00,VWS V14.00,2013-02-06 01:02:00,
2013-02-05 18:07:00,56.6,35.0,29.90,West,275,0.0,0.0,44,0.00,,---,0.00,VWS V14.00,2013-02-06 01:07:00,
2013-02-05 18:12:00,55.9,34.9,29.90,West,275,0.0,0.0,45,0.00,,---,0.00,VWS V14.00,2013-02-06 01:12:00,
2013-02-05 18:17:00,55.2,34.8,29.91,West,275,0.0,0.0,46,0.00,,---,0.00,VWS V14.00,2013-02-06 01:17:00,
2013-02-05 18:23:00,54.3,34.0,29.91,West,275,0.0,0.0,46,0.00,,---,0.00,VWS V14.00,2013-02-06 01:23:00,
2013-02-05 18:28:00,53.4,34.2,29.91,West,275,0.0,0.0,48,0.00,,---,0.00,VWS V14.00,2013-02-06 01:28:00,
2013-02-05 18:33:00,52.4,33.8,29.91,West,275,0.0,0.0,49,0.00,,---,0.00,VWS V14.00,2013-02-06 01:33:00,
2013-02-05 18:38:00,51.2,33.7,29.92,West,275,0.0,0.0,51,0.00,,---,0.00,VWS V14.00,2013-02-06 01:38:00,
2013-02-05 18:43:00,50.0,33.6,29.92,West,275,0.0,0.0,53,0.00,,---,0.00,VWS V14.00,2013-02-06 01:43:00,
2013-02-05 18:48:00,49.4,33.9,29.92,West,275,0.0,0.0,55,0.00,,---,0.00,VWS V14.00,2013-02-06 01:48:00,
2013-02-05 18:53:00,49.1,34.1,29.92,West,275,0.0,0.0,56,0.00,,---,0.00,VWS V14.00,2013-02-06 01:53:00,
2013-02-05 18:58:00,49.4,34.4,29.92,West,275,0.0,0.0,56,0.00,,---,0.00,VWS V14.00,2013-02-06 01:58:00,
2013-02-05 19:03:00,49.9,34.4,29.93,West,275,0.0,0.0,55,0.00,,---,0.00,VWS V14.00,2013-02-06 02:03:00,
2013-02-05 19:08:00,50.0,34.5,29.92,West,275,0.0,0.0,55,0.00,,---,0.00,VWS V14.00,2013-02-06 02:08:00,
2013-02-05 19:13:00,49.9,34.4,29.93,West,275,0.0,0.0,55,0.00,,---,0.00,VWS V14.00,2013-02-06 02:13:00,
2013-02-05 19:18:00,49.5,34.5,29.93,West,275,0.0,0.0,56,0.00,,---,0.00,VWS V14.00,2013-02-06 02:18:00,
2013-02-05 19:23:00,49.2,34.6,29.93,West,275,0.0,0.0,57,0.00,,---,0.00,VWS V14.00,2013-02-06 02:23:00,
2013-02-05 19:28:00,49.6,35.0,29.93,West,275,0.0,0.0,57,0.00,,---,0.00,VWS V14.00,2013-02-06 02:28:00,
2013-02-05 19:33:00,49.8,35.2,29.93,West,275,0.0,0.0,57,0.00,,---,0.00,VWS V14.00,2013-02-06 02:33:00,
2013-02-05 19:38:00,50.0,34.9,29.93,West,275,0.0,0.0,56,0.00,,---,0.00,VWS V14.00,2013-02-06 02:38:00,
2013-02-05 19:43:00,50.1,35.0,29.93,West,275,0.0,0.0,56,0.00,,---,0.00,VWS V14.00,2013-02-06 02:43:00,
2013-02-05 19:48:00,50.0,34.9,29.93,West,275,0.0,0.0,56,0.00,,---,0.00,VWS V14.00,2013-02-06 02:48:00,
2013-02-05 19:53:00,50.0,34.9,29.93,West,275,0.0,0.0,56,0.00,,---,0.00,VWS V14.00,2013-02-06 02:53:00,
2013-02-05 19:58:00,49.5,34.5,29.93,West,275,0.0,0.0,56,0.00,,---,0.00,VWS V14.00,2013-02-06 02:58:00,
2013-02-05 20:03:00,48.3,33.3,29.93,West,275,0.0,0.0,56,0.00,,---,0.00,VWS V14.00,2013-02-06 03:03:00,
2013-02-05 20:08:00,46.9,33.8,29.93,West,275,0.0,0.0,60,0.00,,---,0.00,VWS V14.00,2013-02-06 03:08:00,
2013-02-05 20:13:00,47.2,34.9,29.93,SSE,166,0.0,0.0,62,0.00,,---,0.00,VWS V14.00,2013-02-06 03:13:00,
2013-02-05 20:18:00,47.8,35.0,29.93,SSE,166,0.0,0.0,61,0.00,,---,0.00,VWS V14.00,2013-02-06 03:18:00,
2013-02-05 20:23:00,48.7,35.5,29.93,WSW,249,0.0,6.0,60,0.00,,---,0.00,VWS V14.00,2013-02-06 03:23:00,
2013-02-05 20:28:00,49.6,35.9,29.94,WSW,249,0.0,6.0,59,0.00,,---,0.00,VWS V14.00,2013-02-06 03:28:00,
2013-02-05 20:33:00,50.0,35.8,29.93,WSW,249,0.0,0.0,58,0.00,,---,0.00,VWS V14.00,2013-02-06 03:33:00,
2013-02-05 20:38:00,50.0,35.4,29.94,WSW,249,0.0,0.0,57,0.00,,---,0.00,VWS V14.00,2013-02-06 03:38:00,
2013-02-05 20:43:00,49.2,34.2,29.94,WSW,249,0.0,0.0,56,0.00,,---,0.00,VWS V14.00,2013-02-06 03:43:00,
2013-02-05 20:48:00,47.9,34.3,29.95,WSW,249,0.0,0.0,59,0.00,,---,0.00,VWS V14.00,2013-02-06 03:48:00,
2013-02-05 20:53:00,46.2,33.5,29.95,WSW,249,0.0,0.0,61,0.00,,---,0.00,VWS V14.00,2013-02-06 03:53:00,
2013-02-05 20:58:00,44.7,33.7,29.95,WSW,249,0.0,0.0,65,0.00,,---,0.00,VWS V14.00,2013-02-06 03:58:00,
2013-02-05 21:03:00,43.7,33.1,29.95,WSW,249,0.0,0.0,66,0.00,,---,0.00,VWS V14.00,2013-02-06 04:03:00,
2013-02-05 21:08:00,43.3,33.5,29.95,WSW,249,0.0,0.0,68,0.00,,---,0.00,VWS V14.00,2013-02-06 04:08:00,
2013-02-05 21:13:00,43.6,34.1,29.95,WSW,248,0.0,0.0,69,0.00,,---,0.00,VWS V14.00,2013-02-06 04:13:00,
2013-02-05 21:18:00,43.9,34.4,29.95,WSW,244,0.0,0.0,69,0.00,,---,0.00,VWS V14.00,2013-02-06 04:18:00,
2013-02-05 21:24:00,44.2,34.7,29.95,WSW,244,0.0,0.0,69,0.00,,---,0.00,VWS V14.00,2013-02-06 04:24:00,
2013-02-05 21:29:00,44.4,34.9,29.95,WSW,244,0.0,0.0,69,0.00,,---,0.00,VWS V14.00,2013-02-06 04:29:00,
2013-02-05 21:34:00,44.7,34.8,29.95,WSW,244,0.0,0.0,68,0.00,,---,0.00,VWS V14.00,2013-02-06 04:34:00,
2013-02-05 21:39:00,44.8,34.5,29.95,WSW,244,0.0,0.0,67,0.00,,---,0.00,VWS V14.00,2013-02-06 04:39:00,
2013-02-05 21:44:00,44.6,34.7,29.94,WSW,244,0.0,0.0,68,0.00,,---,0.00,VWS V14.00,2013-02-06 04:44:00,
2013-02-05 21:49:00,44.5,34.6,29.94,WSW,244,0.0,0.0,68,0.00,,---,0.00,VWS V14.00,2013-02-06 04:49:00,
2013-02-05 21:54:00,44.5,33.9,29.94,WSW,244,0.0,0.0,66,0.00,,---,0.00,VWS V14.00,2013-02-06 04:54:00,
2013-02-05 21:59:00,43.8,33.6,29.94,WSW,244,0.0,0.0,67,0.00,,---,0.00,VWS V14.00,2013-02-06 04:59:00,
2013-02-05 22:00:00,43.6,33.4,29.94,WSW,244,0.0,0.0,67,0.00,,---,0.00,VWS V14.00,2013-02-06 05:00:00,
2013-02-05 22:05:00,42.4,32.2,29.95,WSW,244,0.0,0.0,67,0.00,,---,0.00,VWS V14.00,2013-02-06 05:05:00,
2013-02-05 22:10:00,40.9,31.9,29.95,WSW,244,0.0,0.0,70,0.00,,---,0.00,VWS V14.00,2013-02-06 05:10:00,
2013-02-05 22:15:00,40.1,31.8,29.95,WSW,244,0.0,0.0,72,0.00,,---,0.00,VWS V14.00,2013-02-06 05:15:00,
2013-02-05 22:20:00,39.5,31.6,29.95,WSW,244,0.0,0.0,73,0.00,,---,0.00,VWS V14.00,2013-02-06 05:20:00,
2013-02-05 22:25:00,39.0,31.8,29.95,WSW,244,0.0,0.0,75,0.00,,---,0.00,VWS V14.00,2013-02-06 05:25:00,
2013-02-05 22:30:00,38.7,32.1,29.95,WSW,244,0.0,0.0,77,0.00,,---,0.00,VWS V14.00,2013-02-06 05:30:00,
2013-02-05 22:35:00,39.4,33.1,29.95,WSW,244,0.0,0.0,78,0.00,,---,0.00,VWS V14.00,2013-02-06 05:35:00,
2013-02-05 22:40:00,40.2,33.2,29.95,WSW,244,0.0,0.0,76,0.00,,---,0.00,VWS V14.00,2013-02-06 05:40:00,
2013-02-05 22:45:00,41.0,33.7,29.96,WSW,244,0.0,0.0,75,0.00,,---,0.00,VWS V14.00,2013-02-06 05:45:00,
2013-02-05 22:50:00,41.2,32.5,29.95,WSW,244,0.0,0.0,71,0.00,,---,0.00,VWS V14.00,2013-02-06 05:50:00,
2013-02-05 22:55:00,40.4,32.4,29.95,WSW,244,0.0,0.0,73,0.00,,---,0.00,VWS V14.00,2013-02-06 05:55:00,
2013-02-05 23:00:00,39.4,31.5,29.95,WSW,244,0.0,0.0,73,0.00,,---,0.00,VWS V14.00,2013-02-06 06:00:00,
2013-02-05 23:05:00,38.4,30.9,29.95,WSW,244,0.0,0.0,74,0.00,,---,0.00,VWS V14.00,2013-02-06 06:05:00,
2013-02-05 23:10:00,37.5,31.3,29.95,WSW,244,0.0,0.0,78,0.00,,---,0.00,VWS V14.00,2013-02-06 06:10:00,
2013-02-05 23:15:00,37.0,30.8,29.96,WSW,244,0.0,0.0,78,0.00,,---,0.00,VWS V14.00,2013-02-06 06:15:00,
2013-02-05 23:20:00,36.3,30.1,29.96,WSW,244,0.0,0.0,78,0.00,,---,0.00,VWS V14.00,2013-02-06 06:20:00,
2013-02-05 23:25:00,35.7,29.8,29.96,WSW,244,0.0,0.0,79,0.00,,---,0.00,VWS V14.00,2013-02-06 06:25:00,
2013-02-05 23:30:00,35.6,30.7,29.96,WSW,241,0.0,0.0,82,0.00,,---,0.00,VWS V14.00,2013-02-06 06:30:00,
2013-02-05 23:35:00,36.3,31.6,29.96,WSW,240,0.0,0.0,83,0.00,,---,0.00,VWS V14.00,2013-02-06 06:35:00,
2013-02-05 23:40:00,36.8,31.8,29.96,WSW,240,0.0,0.0,82,0.00,,---,0.00,VWS V14.00,2013-02-06 06:40:00,
2013-02-05 23:45:00,36.9,31.3,29.96,WSW,240,0.0,0.0,80,0.00,,---,0.00,VWS V14.00,2013-02-06 06:45:00,
2013-02-05 23:50:00,37.1,32.1,29.95,WSW,240,0.0,0.0,82,0.00,,---,0.00,VWS V14.00,2013-02-06 06:50:00,
2013-02-05 23:55:00,37.3,31.7,29.95,WSW,240,0.0,0.0,80,0.00,,---,0.00,VWS V14.00,2013-02-06 06:55:00,